Seymour B Durst — WDC4078 — position and weather

sailwx.info

Track history (hours):
 
Tides and Currents Weather Stations Pressure Air Temp Water Temp Dewpoint Dewpoint Depression Visibility Wind Speed Wind Dir Waves Ship Positions

Seymour B Durst

Owner: NEW YORK TRANS HARBOR LLC, BROOKLYN, NY. More information available from US FCC via Universal Licensing System and Coast Guard Vessel Documentation Center.

Last reported at 2017-Oct-17 18:06 UTC. Time now 2017-Oct-18 11:09 UTC.
Position N 40°40' W 074°01'.

Type: Ship. MMSI: 367018750.

Date/timePositionNaut miles runAvg speedWind from/ knotsBaromVisibWave heightAir tempDewpointWater temp
2017-Oct-17 18:06N 40°40' W 074°01'0 4.7
2017-Oct-17 18:01N 40°41' W 074°01'3 5.1
2017-Oct-17 17:30N 40°42' W 073°59'2 4.8
2017-Oct-17 17:01N 40°45' W 073°58'2 4.8
2017-Oct-17 16:30N 40°42' W 073°59'2 3.0
2017-Oct-17 16:00N 40°44' W 073°58'0 0.2
2017-Oct-17 15:31N 40°44' W 073°58'2 3.1
2017-Oct-17 15:00N 40°42' W 073°59'1 2.2
2017-Oct-17 14:31N 40°42' W 074°00'0 0.1
2017-Oct-17 14:01N 40°42' W 074°00'1 2.4
2017-Oct-17 13:31N 40°42' W 073°59'2 4.5
2017-Oct-17 13:00N 40°44' W 073°58'1 2.8
2017-Oct-17 12:30N 40°43' W 073°58'0 0.3
2017-Oct-17 12:00N 40°43' W 073°58'3 0.1
2017-Oct-16 01:33N 40°40' W 074°01'0 0.0
2017-Oct-16 01:30N 40°40' W 074°01'2 4.1
2017-Oct-16 01:00N 40°42' W 074°00'1 1.3
2017-Oct-16 00:30N 40°42' W 073°59'2 4.3
2017-Oct-16 00:00N 40°42' W 074°02'1 3.0
2017-Oct-15 23:31N 40°42' W 074°00'0 0.0
2017-Oct-15 23:00N 40°42' W 074°00'0 0.0
2017-Oct-15 22:30N 40°42' W 074°00'0 0.0
2017-Oct-15 22:00N 40°42' W 074°00'2 4.1
2017-Oct-15 21:30N 40°41' W 074°02'2 4.1
2017-Oct-15 21:01N 40°42' W 074°00'0 0.3
2017-Oct-15 20:31N 40°42' W 073°60'2 3.7
2017-Oct-15 20:00N 40°42' W 074°02'2 3.4
2017-Oct-15 19:30N 40°42' W 074°00'0 0.0
2017-Oct-15 19:00N 40°42' W 074°00'2 4.5
2017-Oct-15 18:30N 40°41' W 074°03'2 4.4
2017-Oct-15 18:00N 40°42' W 074°00'0 0.0
2017-Oct-15 17:30N 40°42' W 074°00'2 4.2
2017-Oct-15 17:00N 40°41' W 074°03'2 4.2
2017-Oct-15 16:30N 40°42' W 074°00'0 0.0
2017-Oct-15 16:00N 40°42' W 074°00'2 4.1
2017-Oct-15 15:30N 40°41' W 074°02'2 4.1
2017-Oct-15 15:00N 40°42' W 074°00'2 2.0
2017-Oct-15 14:00N 40°40' W 074°01'0 0.0
2017-Oct-15 05:37N 40°40' W 074°01'0 0.0
2017-Oct-15 05:30N 40°40' W 074°01'2 4.1
2017-Oct-15 05:00N 40°42' W 074°00'1 1.3
2017-Oct-15 04:31N 40°42' W 074°00'1 1.3
2017-Oct-15 04:01N 40°41' W 074°01'0 0.0
2017-Oct-15 03:30N 40°41' W 074°01'1 1.3
2017-Oct-15 03:00N 40°42' W 074°00'1 1.3
2017-Oct-15 02:30N 40°41' W 074°01'1 2.6
2017-Oct-15 02:00N 40°42' W 074°00'0 0.0
2017-Oct-15 01:30N 40°42' W 074°00'1 2.6
2017-Oct-15 01:00N 40°41' W 074°01'1 2.5
2017-Oct-15 00:30N 40°42' W 074°00'0 0.1
2017-Oct-15 00:00N 40°42' W 074°00'0 0.1
2017-Oct-14 23:30N 40°42' W 074°00'1 2.3
2017-Oct-14 23:00N 40°42' W 073°59'1 1.9
2017-Oct-14 22:30N 40°42' W 073°60'0 0.1
2017-Oct-14 22:00N 40°42' W 073°60'2 4.6
2017-Oct-14 21:30N 40°41' W 074°03'2 4.3
2017-Oct-14 21:00N 40°42' W 074°00'1 2.1
2017-Oct-14 20:30N 40°42' W 074°01'0 1.0
2017-Oct-14 20:00N 40°42' W 074°01'1 1.4
2017-Oct-14 19:30N 40°42' W 073°60'0 0.2
2017-Oct-14 19:00N 40°42' W 074°00'2 4.4
2017-Oct-14 18:30N 40°41' W 074°03'2 4.3
2017-Oct-14 18:00N 40°42' W 074°00'0 0.1
2017-Oct-14 17:30N 40°42' W 074°00'2 3.4
2017-Oct-14 17:00N 40°42' W 074°02'2 3.5
2017-Oct-14 16:30N 40°42' W 074°00'0 0.0
2017-Oct-14 16:01N 40°42' W 074°00'1 2.4
2017-Oct-14 15:30N 40°43' W 074°02'1 2.5
2017-Oct-14 15:00N 40°42' W 074°00'2 4.3
2017-Oct-14 14:30N 40°40' W 074°01'0 0.2
2017-Oct-14 14:00N 40°40' W 074°01'0 0.0
2017-Oct-14 13:30N 40°40' W 074°01'0 0.0
2017-Oct-14 13:00N 40°40' W 074°01'0 0.0
2017-Oct-14 12:30N 40°40' W 074°01'0 0.0
2017-Oct-14 01:06N 40°40' W 074°01'0 0.0
2017-Oct-14 01:00N 40°40' W 074°01'2 4.0
2017-Oct-14 00:30N 40°42' W 074°00'1 2.6
2017-Oct-14 00:00N 40°42' W 074°02'1 2.7
2017-Oct-13 23:30N 40°42' W 074°00'0 0.0
2017-Oct-13 23:00N 40°42' W 074°00'1 1.5
2017-Oct-13 22:30N 40°42' W 074°01'2 3.7
2017-Oct-13 22:00N 40°44' W 074°01'2 3.7
2017-Oct-13 21:29N 40°42' W 074°00'0 0.3
2017-Oct-13 20:30N 40°42' W 073°60'3 6.7
2017-Oct-13 20:00N 40°45' W 074°01'4 8.7
2017-Oct-13 19:30N 40°41' W 074°02'1 2.7
2017-Oct-13 19:00N 40°42' W 074°01'1 1.0
2017-Oct-13 18:30N 40°42' W 074°02'1 2.5
2017-Oct-13 18:00N 40°42' W 074°00'3 6.9
2017-Oct-13 17:30N 40°46' W 074°00'3 6.8
2017-Oct-13 17:00N 40°42' W 073°60'2 3.9
2017-Oct-13 16:30N 40°44' W 074°01'3 5.3
2017-Oct-13 16:00N 40°41' W 074°03'1 2.8
2017-Oct-13 15:30N 40°42' W 074°01'2 3.4
2017-Oct-13 15:00N 40°44' W 074°01'2 3.5
2017-Oct-13 14:30N 40°42' W 074°00'3 6.8
2017-Oct-13 14:00N 40°46' W 074°00'2 5.0
2017-Oct-13 13:30N 40°43' W 074°01'3 0.2
2017-Oct-12 21:37N 40°40' W 074°01'0 1.7
2017-Oct-12 21:30N 40°40' W 074°01'2 4.3
2017-Oct-12 21:00N 40°42' W 073°60'0 0.6
2017-Oct-12 20:30N 40°42' W 074°00'2 4.1
2017-Oct-12 20:00N 40°40' W 074°01'0 0.0
2017-Oct-12 11:01N 40°40' W 074°01'0 0.0
2017-Oct-12 11:00N 40°40' W 074°01'2 0.1
2017-Oct-11 00:00N 40°42' W 074°00'1 2.3
2017-Oct-10 23:30N 40°41' W 074°01'1 2.5
2017-Oct-10 23:00N 40°42' W 074°00'0 0.3
2017-Oct-10 22:30N 40°42' W 073°60'0 0.3
2017-Oct-10 22:00N 40°42' W 074°00'1 2.7
2017-Oct-10 21:30N 40°43' W 074°02'1 2.6
2017-Oct-10 21:00N 40°42' W 074°00'0 0.0
2017-Oct-10 20:30N 40°42' W 074°00'2 4.4
2017-Oct-10 20:00N 40°41' W 074°03'2 4.4
2017-Oct-10 19:30N 40°42' W 074°00'0 0.0
2017-Oct-10 19:00N 40°42' W 074°00'2 3.4
2017-Oct-10 18:30N 40°41' W 074°02'1 2.9
2017-Oct-10 18:00N 40°42' W 074°00'0 0.6
2017-Oct-10 17:30N 40°42' W 074°00'2 4.3
2017-Oct-10 17:00N 40°41' W 074°03'2 4.3
2017-Oct-10 16:30N 40°42' W 074°00'0 0.0
2017-Oct-10 16:00N 40°42' W 074°00'2 4.3
2017-Oct-10 15:30N 40°41' W 074°03'2 4.4
2017-Oct-10 15:00N 40°42' W 074°00'2 0.1
2017-Oct-09 14:56N 40°40' W 074°01'0 0.0
2017-Oct-09 14:30N 40°40' W 074°01'0 0.0
2017-Oct-08 22:53N 40°40' W 074°01'2 4.6
2017-Oct-08 22:31N 40°42' W 074°01'1 2.0
2017-Oct-08 22:01N 40°43' W 074°01'1 2.3
2017-Oct-08 21:30N 40°42' W 074°00'3 6.9
2017-Oct-08 21:00N 40°46' W 074°00'3 6.9
2017-Oct-08 20:30N 40°42' W 073°60'2 4.3
2017-Oct-08 20:00N 40°44' W 074°01'3 5.7
2017-Oct-08 19:30N 40°41' W 074°02'2 3.0
2017-Oct-08 19:00N 40°43' W 074°01'0 0.8
2017-Oct-08 18:30N 40°43' W 074°02'1 2.3
2017-Oct-08 18:00N 40°42' W 074°00'3 6.8
2017-Oct-08 17:30N 40°46' W 074°00'3 6.8
2017-Oct-08 17:00N 40°42' W 073°60'2 4.0
2017-Oct-08 16:30N 40°44' W 074°01'3 5.7
2017-Oct-08 16:00N 40°41' W 074°02'1 2.8
2017-Oct-08 15:30N 40°42' W 074°01'2 3.7
2017-Oct-08 15:00N 40°44' W 074°01'2 3.9
2017-Oct-08 14:30N 40°42' W 074°00'3 6.7
2017-Oct-08 14:00N 40°46' W 074°00'510.8
2017-Oct-08 13:30N 40°40' W 074°01'0 0.0
2017-Oct-08 13:00N 40°40' W 074°01'0 0.0
2017-Oct-08 01:06N 40°40' W 074°01'0 2.1
2017-Oct-08 01:01N 40°40' W 074°01'2 4.1
2017-Oct-08 00:30N 40°42' W 074°00'2 3.2
2017-Oct-08 00:00N 40°42' W 074°02'2 3.2
2017-Oct-07 23:30N 40°42' W 074°00'0 0.0
2017-Oct-07 23:00N 40°42' W 074°00'0 0.0
2017-Oct-07 22:30N 40°42' W 074°00'0 0.0
2017-Oct-07 22:00N 40°42' W 074°00'2 3.3
2017-Oct-07 21:30N 40°42' W 074°02'2 3.2
2017-Oct-07 21:00N 40°42' W 074°00'0 0.0
2017-Oct-07 20:30N 40°42' W 074°00'2 4.5
2017-Oct-07 20:00N 40°41' W 074°03'2 4.7
2017-Oct-07 19:30N 40°42' W 073°60'0 0.3
2017-Oct-07 19:00N 40°42' W 074°00'1 2.7
2017-Oct-07 18:30N 40°42' W 074°02'  
Track history (hours):
 
Tides and Currents Weather Stations Pressure Air Temp Water Temp Dewpoint Dewpoint Depression Visibility Wind Speed Wind Dir Waves Ship Positions

Seymour B Durst

Owner: NEW YORK TRANS HARBOR LLC, BROOKLYN, NY. More information available from US FCC via Universal Licensing System and Coast Guard Vessel Documentation Center.

Last reported at 2017-Oct-17 18:06 UTC. Time now 2017-Oct-18 11:09 UTC.
Position N 40°40' W 074°01'.

Type: Ship. MMSI: 367018750.

Date/timePositionNaut miles runAvg speedWind from/ knotsBaromVisibWave heightAir tempDewpointWater temp
2017-Oct-17 18:06N 40°40' W 074°01'0 4.7
2017-Oct-17 18:01N 40°41' W 074°01'3 5.1
2017-Oct-17 17:30N 40°42' W 073°59'2 4.8
2017-Oct-17 17:01N 40°45' W 073°58'2 4.8
2017-Oct-17 16:30N 40°42' W 073°59'2 3.0
2017-Oct-17 16:00N 40°44' W 073°58'0 0.2
2017-Oct-17 15:31N 40°44' W 073°58'2 3.1
2017-Oct-17 15:00N 40°42' W 073°59'1 2.2
2017-Oct-17 14:31N 40°42' W 074°00'0 0.1
2017-Oct-17 14:01N 40°42' W 074°00'1 2.4
2017-Oct-17 13:31N 40°42' W 073°59'2 4.5
2017-Oct-17 13:00N 40°44' W 073°58'1 2.8
2017-Oct-17 12:30N 40°43' W 073°58'0 0.3
2017-Oct-17 12:00N 40°43' W 073°58'3 0.1
2017-Oct-16 01:33N 40°40' W 074°01'0 0.0
2017-Oct-16 01:30N 40°40' W 074°01'2 4.1
2017-Oct-16 01:00N 40°42' W 074°00'1 1.3
2017-Oct-16 00:30N 40°42' W 073°59'2 4.3
2017-Oct-16 00:00N 40°42' W 074°02'1 3.0
2017-Oct-15 23:31N 40°42' W 074°00'0 0.0
2017-Oct-15 23:00N 40°42' W 074°00'0 0.0
2017-Oct-15 22:30N 40°42' W 074°00'0 0.0
2017-Oct-15 22:00N 40°42' W 074°00'2 4.1
2017-Oct-15 21:30N 40°41' W 074°02'2 4.1
2017-Oct-15 21:01N 40°42' W 074°00'0 0.3
2017-Oct-15 20:31N 40°42' W 073°60'2 3.7
2017-Oct-15 20:00N 40°42' W 074°02'2 3.4
2017-Oct-15 19:30N 40°42' W 074°00'0 0.0
2017-Oct-15 19:00N 40°42' W 074°00'2 4.5
2017-Oct-15 18:30N 40°41' W 074°03'2 4.4
2017-Oct-15 18:00N 40°42' W 074°00'0 0.0
2017-Oct-15 17:30N 40°42' W 074°00'2 4.2
2017-Oct-15 17:00N 40°41' W 074°03'2 4.2
2017-Oct-15 16:30N 40°42' W 074°00'0 0.0
2017-Oct-15 16:00N 40°42' W 074°00'2 4.1
2017-Oct-15 15:30N 40°41' W 074°02'2 4.1
2017-Oct-15 15:00N 40°42' W 074°00'2 2.0
2017-Oct-15 14:00N 40°40' W 074°01'0 0.0
2017-Oct-15 05:37N 40°40' W 074°01'0 0.0
2017-Oct-15 05:30N 40°40' W 074°01'2 4.1
2017-Oct-15 05:00N 40°42' W 074°00'1 1.3
2017-Oct-15 04:31N 40°42' W 074°00'1 1.3
2017-Oct-15 04:01N 40°41' W 074°01'0 0.0
2017-Oct-15 03:30N 40°41' W 074°01'1 1.3
2017-Oct-15 03:00N 40°42' W 074°00'1 1.3
2017-Oct-15 02:30N 40°41' W 074°01'1 2.6
2017-Oct-15 02:00N 40°42' W 074°00'0 0.0
2017-Oct-15 01:30N 40°42' W 074°00'1 2.6
2017-Oct-15 01:00N 40°41' W 074°01'1 2.5
2017-Oct-15 00:30N 40°42' W 074°00'0 0.1
2017-Oct-15 00:00N 40°42' W 074°00'0 0.1
2017-Oct-14 23:30N 40°42' W 074°00'1 2.3
2017-Oct-14 23:00N 40°42' W 073°59'1 1.9
2017-Oct-14 22:30N 40°42' W 073°60'0 0.1
2017-Oct-14 22:00N 40°42' W 073°60'2 4.6
2017-Oct-14 21:30N 40°41' W 074°03'2 4.3
2017-Oct-14 21:00N 40°42' W 074°00'1 2.1
2017-Oct-14 20:30N 40°42' W 074°01'0 1.0
2017-Oct-14 20:00N 40°42' W 074°01'1 1.4
2017-Oct-14 19:30N 40°42' W 073°60'0 0.2
2017-Oct-14 19:00N 40°42' W 074°00'2 4.4
2017-Oct-14 18:30N 40°41' W 074°03'2 4.3
2017-Oct-14 18:00N 40°42' W 074°00'0 0.1
2017-Oct-14 17:30N 40°42' W 074°00'2 3.4
2017-Oct-14 17:00N 40°42' W 074°02'2 3.5
2017-Oct-14 16:30N 40°42' W 074°00'0 0.0
2017-Oct-14 16:01N 40°42' W 074°00'1 2.4
2017-Oct-14 15:30N 40°43' W 074°02'1 2.5
2017-Oct-14 15:00N 40°42' W 074°00'2 4.3
2017-Oct-14 14:30N 40°40' W 074°01'0 0.2
2017-Oct-14 14:00N 40°40' W 074°01'0 0.0
2017-Oct-14 13:30N 40°40' W 074°01'0 0.0
2017-Oct-14 13:00N 40°40' W 074°01'0 0.0
2017-Oct-14 12:30N 40°40' W 074°01'0 0.0
2017-Oct-14 01:06N 40°40' W 074°01'0 0.0
2017-Oct-14 01:00N 40°40' W 074°01'2 4.0
2017-Oct-14 00:30N 40°42' W 074°00'1 2.6
2017-Oct-14 00:00N 40°42' W 074°02'1 2.7
2017-Oct-13 23:30N 40°42' W 074°00'0 0.0
2017-Oct-13 23:00N 40°42' W 074°00'1 1.5
2017-Oct-13 22:30N 40°42' W 074°01'2 3.7
2017-Oct-13 22:00N 40°44' W 074°01'2 3.7
2017-Oct-13 21:29N 40°42' W 074°00'0 0.3
2017-Oct-13 20:30N 40°42' W 073°60'3 6.7
2017-Oct-13 20:00N 40°45' W 074°01'4 8.7
2017-Oct-13 19:30N 40°41' W 074°02'1 2.7
2017-Oct-13 19:00N 40°42' W 074°01'1 1.0
2017-Oct-13 18:30N 40°42' W 074°02'1 2.5
2017-Oct-13 18:00N 40°42' W 074°00'3 6.9
2017-Oct-13 17:30N 40°46' W 074°00'3 6.8
2017-Oct-13 17:00N 40°42' W 073°60'2 3.9
2017-Oct-13 16:30N 40°44' W 074°01'3 5.3
2017-Oct-13 16:00N 40°41' W 074°03'1 2.8
2017-Oct-13 15:30N 40°42' W 074°01'2 3.4
2017-Oct-13 15:00N 40°44' W 074°01'2 3.5
2017-Oct-13 14:30N 40°42' W 074°00'3 6.8
2017-Oct-13 14:00N 40°46' W 074°00'2 5.0
2017-Oct-13 13:30N 40°43' W 074°01'3 0.2
2017-Oct-12 21:37N 40°40' W 074°01'0 1.7
2017-Oct-12 21:30N 40°40' W 074°01'2 4.3
2017-Oct-12 21:00N 40°42' W 073°60'0 0.6
2017-Oct-12 20:30N 40°42' W 074°00'2 4.1
2017-Oct-12 20:00N 40°40' W 074°01'0 0.0
2017-Oct-12 11:01N 40°40' W 074°01'0 0.0
2017-Oct-12 11:00N 40°40' W 074°01'2 0.1
2017-Oct-11 00:00N 40°42' W 074°00'1 2.3
2017-Oct-10 23:30N 40°41' W 074°01'1 2.5
2017-Oct-10 23:00N 40°42' W 074°00'0 0.3
2017-Oct-10 22:30N 40°42' W 073°60'0 0.3
2017-Oct-10 22:00N 40°42' W 074°00'1 2.7
2017-Oct-10 21:30N 40°43' W 074°02'1 2.6
2017-Oct-10 21:00N 40°42' W 074°00'0 0.0
2017-Oct-10 20:30N 40°42' W 074°00'2 4.4
2017-Oct-10 20:00N 40°41' W 074°03'2 4.4
2017-Oct-10 19:30N 40°42' W 074°00'0 0.0
2017-Oct-10 19:00N 40°42' W 074°00'2 3.4
2017-Oct-10 18:30N 40°41' W 074°02'1 2.9
2017-Oct-10 18:00N 40°42' W 074°00'0 0.6
2017-Oct-10 17:30N 40°42' W 074°00'2 4.3
2017-Oct-10 17:00N 40°41' W 074°03'2 4.3
2017-Oct-10 16:30N 40°42' W 074°00'0 0.0
2017-Oct-10 16:00N 40°42' W 074°00'2 4.3
2017-Oct-10 15:30N 40°41' W 074°03'2 4.4
2017-Oct-10 15:00N 40°42' W 074°00'2 0.1
2017-Oct-09 14:56N 40°40' W 074°01'0 0.0
2017-Oct-09 14:30N 40°40' W 074°01'0 0.0
2017-Oct-08 22:53N 40°40' W 074°01'2 4.6
2017-Oct-08 22:31N 40°42' W 074°01'1 2.0
2017-Oct-08 22:01N 40°43' W 074°01'1 2.3
2017-Oct-08 21:30N 40°42' W 074°00'3 6.9
2017-Oct-08 21:00N 40°46' W 074°00'3 6.9
2017-Oct-08 20:30N 40°42' W 073°60'2 4.3
2017-Oct-08 20:00N 40°44' W 074°01'3 5.7
2017-Oct-08 19:30N 40°41' W 074°02'2 3.0
2017-Oct-08 19:00N 40°43' W 074°01'0 0.8
2017-Oct-08 18:30N 40°43' W 074°02'1 2.3
2017-Oct-08 18:00N 40°42' W 074°00'3 6.8
2017-Oct-08 17:30N 40°46' W 074°00'3 6.8
2017-Oct-08 17:00N 40°42' W 073°60'2 4.0
2017-Oct-08 16:30N 40°44' W 074°01'3 5.7
2017-Oct-08 16:00N 40°41' W 074°02'1 2.8
2017-Oct-08 15:30N 40°42' W 074°01'2 3.7
2017-Oct-08 15:00N 40°44' W 074°01'2 3.9
2017-Oct-08 14:30N 40°42' W 074°00'3 6.7
2017-Oct-08 14:00N 40°46' W 074°00'510.8
2017-Oct-08 13:30N 40°40' W 074°01'0 0.0
2017-Oct-08 13:00N 40°40' W 074°01'0 0.0
2017-Oct-08 01:06N 40°40' W 074°01'0 2.1
2017-Oct-08 01:01N 40°40' W 074°01'2 4.1
2017-Oct-08 00:30N 40°42' W 074°00'2 3.2
2017-Oct-08 00:00N 40°42' W 074°02'2 3.2
2017-Oct-07 23:30N 40°42' W 074°00'0 0.0
2017-Oct-07 23:00N 40°42' W 074°00'0 0.0
2017-Oct-07 22:30N 40°42' W 074°00'0 0.0
2017-Oct-07 22:00N 40°42' W 074°00'2 3.3
2017-Oct-07 21:30N 40°42' W 074°02'2 3.2
2017-Oct-07 21:00N 40°42' W 074°00'0 0.0
2017-Oct-07 20:30N 40°42' W 074°00'2 4.5
2017-Oct-07 20:00N 40°41' W 074°03'2 4.7
2017-Oct-07 19:30N 40°42' W 073°60'0 0.3
2017-Oct-07 19:00N 40°42' W 074°00'1 2.7
2017-Oct-07 18:30N 40°42' W 074°02'  

Dump ship's entire track history